WESTPORT MEDIA Westport In The Media

Enter your "Place, State", US Zip Code or ICAO:  

Palma De Mallorca / Son San Juan, Spain

 Lat: 39.55N, Lon: 2.73E
ICAO Used: LEPA
Current Conditions
Updated: 12:00 PM GMT1 MON SEP 1 2014
Sun & Moon Information
Mostly Clear
Mostly Clear
Temp: 28°C
Humidity: 65%
Wind Speed: SW 15 MPH
Barometer: 1015 mb
Dewpoint: 21°C
Heat Index: 30°C
Wind Chill: 28°C
Civil Twilight: 5:48 AM GMT1 Moon Phase:
Waxing Gibbous Moon
Sunrise: 6:15 AM GMT1
Sunset: 7:21 PM GMT1
Civil Twilight: 7:49 PM GMT1
Forecast for Palma De Mallorca / Son San Juan, Spain:
(Forecast based on TAF for )
1000 AM GMT1 MON SEP 01 2014
  
MORNING AFTERNOON EVENING OVERNIGHT
Fair Fair Fair Fair
ZoneCast:
Dated: 1000 AM GMT1 MON SEP 01 2014
Morning...Becoming fair with winds from the southwest at 14 mph.

Afternoon...Fair with winds from the southwest at 14 mph.

Evening...Fair with winds from the southwest at 14 mph.

Overnight...Fair with winds from the northeast at 6 mph.

Original Encoded TAF:
Dated: 1000 AM GMT1 MON SEP 01 2014
TAF LEPA 010500Z 0106/0206 VRB03KT 9999 SCT025 TX30/0113Z TN20/0106Z 
     BECMG 0109/0111 22012KT 
     BECMG 0118/0120 03005KT